Time;durP1;ratioP1;P1;durP2;ratioP2;P2;SDS_P1;SDS_P2;PMS_P1;PMS_P2;Temp;Humidity;BMP_temperature;BMP_pressure;BME280_temperature;BME280_humidity;BME280_pressure;Samples;Min_cycle;Max_cycle;Signal;HPM_P1;HPM_P2
2022/07/07 00:01:52;;;;;;;1.60;1.48;;;20.20;83.60;;;20.70;59.11;101492.72;5227965;28;20433;-82
2022/07/07 00:04:26;;;;;;;1.52;1.40;;;20.20;83.80;;;20.68;59.53;101490.06;5194657;28;20060;-83
2022/07/07 00:06:59;;;;;;;2.10;1.55;;;20.20;84.20;;;20.68;59.66;101490.06;5228093;28;20188;-83
2022/07/07 00:09:31;;;;;;;2.55;1.50;;;20.20;84.50;;;20.67;59.93;101483.00;5228222;28;20155;-83
2022/07/07 00:12:04;;;;;;;1.40;1.30;;;20.20;84.90;;;20.65;60.19;101484.75;5287963;22;20497;-74
2022/07/07 00:14:37;;;;;;;1.95;1.40;;;20.20;85.30;;;20.65;60.53;101474.13;5199112;28;20524;-73
2022/07/07 00:17:09;;;;;;;1.30;1.20;;;20.20;85.70;;;20.65;60.48;101465.31;5226817;28;20124;-73
2022/07/07 00:19:43;;;;;;;2.75;1.30;;;20.20;85.80;;;20.64;60.37;101464.44;5225853;28;20076;-74
2022/07/07 00:22:15;;;;;;;2.00;1.55;;;20.20;85.80;;;20.63;60.32;101472.38;5226612;28;20053;-73
2022/07/07 00:24:47;;;;;;;1.83;1.50;;;20.10;85.70;;;20.61;60.39;101467.09;5213037;28;20053;-74
2022/07/07 00:27:19;;;;;;;1.20;1.10;;;20.10;85.80;;;20.60;60.33;101470.59;5206067;28;20120;-73
2022/07/07 00:29:51;;;;;;;1.70;1.40;;;20.10;85.90;;;20.60;60.09;101470.59;5204674;28;20045;-74
2022/07/07 00:32:23;;;;;;;2.50;1.40;;;20.10;85.90;;;20.58;60.14;101467.06;5205771;28;20042;-73
2022/07/07 00:34:57;;;;;;;2.60;1.52;;;20.10;86.00;;;20.58;60.38;101453.81;5205749;28;20053;-73
2022/07/07 00:37:29;;;;;;;2.08;1.50;;;20.10;86.20;;;20.57;60.52;101449.41;5213881;28;20448;-74
2022/07/07 00:40:01;;;;;;;1.55;1.33;;;20.10;86.40;;;20.56;60.55;101450.28;5219700;28;20511;-73
2022/07/07 00:42:34;;;;;;;3.00;1.60;;;20.10;86.40;;;20.54;60.65;101444.97;5224986;28;20052;-74
2022/07/07 00:45:07;;;;;;;3.03;1.63;;;20.10;86.60;;;20.53;60.70;101442.31;5226161;28;20077;-74
2022/07/07 00:47:40;;;;;;;1.55;1.30;;;20.10;86.70;;;20.52;60.81;101438.78;5226519;28;20516;-73
2022/07/07 00:50:13;;;;;;;2.85;1.90;;;20.10;86.90;;;20.51;60.83;101444.06;5226249;28;20045;-74
2022/07/07 00:52:46;;;;;;;2.22;1.63;;;20.00;87.10;;;20.51;61.00;101444.06;5224827;28;20048;-73
2022/07/07 00:55:18;;;;;;;2.40;1.48;;;20.00;87.30;;;20.48;60.97;101442.31;5226045;28;20048;-73
2022/07/07 00:57:51;;;;;;;2.03;1.42;;;20.00;87.40;;;20.49;60.98;101436.13;5226207;28;20045;-74
2022/07/07 01:00:23;;;;;;;1.85;1.40;;;20.00;87.50;;;20.50;61.15;101429.06;5225644;28;20041;-74
2022/07/07 01:02:55;;;;;;;1.50;1.35;;;20.00;87.50;;;20.49;61.15;101427.31;5225940;28;20076;-73
2022/07/07 01:05:31;;;;;;;2.13;1.55;;;20.00;87.70;;;20.49;61.27;101428.19;5225963;28;20049;-74
2022/07/07 01:08:08;;;;;;;3.53;1.60;;;20.00;87.90;;;20.49;61.35;101414.06;5226110;28;20116;-73
2022/07/07 01:10:40;;;;;;;1.67;1.45;;;20.00;88.70;;;20.47;61.65;101410.50;5224719;28;20407;-74
2022/07/07 01:13:13;;;;;;;2.65;1.52;;;20.00;88.40;;;20.44;61.90;101410.47;5226010;28;20040;-74
2022/07/07 01:15:45;;;;;;;2.75;1.70;;;20.00;88.70;;;20.43;62.08;101408.69;5225900;28;20424;-74
2022/07/07 01:18:17;;;;;;;2.97;1.80;;;20.00;89.00;;;20.42;62.16;101404.28;5225884;28;20041;-74
2022/07/07 01:20:51;;;;;;;2.63;1.80;;;19.90;89.10;;;20.41;62.31;101407.78;5225930;28;20413;-74
2022/07/07 01:23:25;;;;;;;3.13;1.58;;;19.90;89.50;;;20.39;62.59;101402.50;5224713;28;20095;-74
2022/07/07 01:25:57;;;;;;;1.63;1.35;;;19.90;89.70;;;20.39;62.69;101404.25;5226119;28;20087;-73
2022/07/07 01:28:30;;;;;;;2.15;1.77;;;19.90;90.00;;;20.37;62.95;101398.97;5225889;28;20489;-74
2022/07/07 01:31:02;;;;;;;2.70;1.80;;;19.90;90.20;;;20.37;63.04;101392.78;5226263;28;20049;-73
2022/07/07 01:33:35;;;;;;;3.13;1.60;;;19.90;90.30;;;20.36;63.10;101407.78;5229853;28;20086;-74
2022/07/07 01:36:12;;;;;;;2.85;1.65;;;19.90;90.40;;;20.35;63.34;101402.50;5229694;28;20498;-74
2022/07/07 01:38:46;;;;;;;2.17;1.85;;;19.90;90.40;;;20.30;63.47;101406.00;5229650;28;20037;-74
2022/07/07 01:41:18;;;;;;;2.65;1.63;;;19.80;90.60;;;20.29;63.86;101401.59;5229767;28;20520;-73
2022/07/07 01:43:50;;;;;;;2.38;1.65;;;19.90;90.80;;;20.27;64.14;101398.03;5229678;28;20049;-75
2022/07/07 01:46:22;;;;;;;2.00;1.60;;;19.80;91.00;;;20.26;64.10;101393.59;5229442;28;20044;-74
2022/07/07 01:48:54;;;;;;;4.10;2.10;;;19.80;91.10;;;20.27;64.10;101392.72;5229477;28;20045;-74
2022/07/07 01:51:27;;;;;;;2.47;1.75;;;19.80;91.10;;;20.27;64.18;101394.50;5229538;28;20523;-74
2022/07/07 01:54:00;;;;;;;2.30;1.60;;;19.80;91.20;;;20.28;64.24;101398.94;5224046;28;20120;-74
2022/07/07 01:56:32;;;;;;;2.05;1.50;;;19.80;91.30;;;20.26;64.74;101390.09;5217199;28;20636;-74
2022/07/07 01:59:04;;;;;;;2.65;1.45;;;19.80;91.50;;;20.27;64.90;101390.09;5229342;28;20051;-75
2022/07/07 02:01:37;;;;;;;2.35;1.30;;;19.80;91.70;;;20.26;64.99;101380.38;5229139;28;20079;-74
2022/07/07 02:04:09;;;;;;;2.80;1.60;;;19.80;91.80;;;20.27;65.16;101386.56;5227982;28;20045;-74
2022/07/07 02:06:41;;;;;;;2.85;1.75;;;19.80;91.90;;;20.26;65.41;101382.13;5229035;28;20500;-74
2022/07/07 02:09:15;;;;;;;2.42;1.45;;;19.80;92.10;;;20.26;65.19;101380.38;5229238;28;20119;-74
2022/07/07 02:11:47;;;;;;;1.75;1.33;;;19.80;92.40;;;20.26;65.25;101379.50;5227502;28;20132;-74
2022/07/07 02:14:19;;;;;;;3.13;1.42;;;19.80;92.10;;;20.25;65.20;101373.31;5229191;28;20045;-73
2022/07/07 02:16:52;;;;;;;2.28;1.50;;;19.80;92.50;;;20.25;65.12;101367.13;5229321;28;20423;-73
2022/07/07 02:19:24;;;;;;;2.20;1.73;;;19.80;92.20;;;20.23;65.14;101363.63;5229018;28;20073;-73
2022/07/07 02:21:56;;;;;;;3.00;1.40;;;19.80;92.30;;;20.22;65.04;101353.91;5228925;28;20050;-74
2022/07/07 02:24:30;;;;;;;2.40;1.63;;;19.80;92.30;;;20.23;65.20;101363.63;5228873;28;20052;-73
2022/07/07 02:27:02;;;;;;;3.20;1.80;;;19.80;92.30;;;20.22;65.22;101361.84;5228765;28;20055;-74
2022/07/07 02:29:34;;;;;;;1.83;1.63;;;19.70;92.40;;;20.22;65.35;101362.72;5244220;28;20051;-74
2022/07/07 02:32:07;;;;;;;3.15;1.73;;;19.70;92.50;;;20.21;65.38;101370.63;5228778;28;20053;-74
2022/07/07 02:34:39;;;;;;;2.33;1.80;;;19.70;92.50;;;20.19;65.62;101375.94;5227378;28;20045;-76
2022/07/07 02:37:11;;;;;;;3.88;1.70;;;19.70;92.60;;;20.14;65.70;101363.56;5228627;28;20051;-74
2022/07/07 02:39:45;;;;;;;2.03;1.60;;;19.70;92.80;;;20.12;66.53;101355.63;5228758;28;20044;-74
2022/07/07 02:42:17;;;;;;;2.45;1.65;;;19.70;93.10;;;20.10;68.00;101352.09;5228076;28;20045;-74
2022/07/07 02:44:49;;;;;;;2.88;1.85;;;19.70;93.90;;;20.12;69.40;101349.44;5227841;28;20041;-74
2022/07/07 02:47:21;;;;;;;2.30;1.75;;;19.70;94.70;;;20.10;70.43;101346.78;5227247;28;20053;-73
2022/07/07 02:49:53;;;;;;;2.67;1.92;;;19.70;95.40;;;20.07;71.95;101336.19;5228580;28;20520;-73
2022/07/07 02:52:25;;;;;;;2.03;1.70;;;19.60;96.30;;;20.05;73.08;101343.22;5228412;28;20037;-74
2022/07/07 02:54:59;;;;;;;2.25;1.88;;;19.60;97.20;;;20.01;74.09;101331.72;5228185;28;20045;-73
2022/07/07 02:57:31;;;;;;;3.47;2.00;;;19.60;98.00;;;19.98;75.57;101330.84;5228378;28;20567;-74
2022/07/07 03:00:04;;;;;;;4.00;2.13;;;19.60;99.30;;;19.96;77.18;101332.63;5228301;28;20459;-74
2022/07/07 03:02:36;;;;;;;5.05;1.77;;;19.60;99.90;;;19.93;77.67;101335.22;5228197;28;20409;-74
2022/07/07 03:05:11;;;;;;;2.85;1.80;;;19.50;99.90;;;19.91;78.34;101335.22;5227965;28;20047;-74
2022/07/07 03:07:43;;;;;;;3.25;1.63;;;19.50;99.90;;;19.87;78.60;101325.50;5228172;28;20121;-74
2022/07/07 03:10:17;;;;;;;3.22;1.58;;;19.50;99.90;;;19.85;78.99;101319.31;5228005;28;20067;-74
2022/07/07 03:12:49;;;;;;;2.22;1.42;;;19.40;99.90;;;19.84;79.32;101316.69;5218879;28;20041;-73
2022/07/07 03:15:21;;;;;;;1.90;1.67;;;19.40;99.90;;;19.83;79.05;101328.16;5239446;28;20232;-74
2022/07/07 03:17:55;;;;;;;2.50;1.60;;;19.40;99.90;;;19.82;78.46;101329.00;5227813;28;20405;-73
2022/07/07 03:20:27;;;;;;;2.05;1.45;;;19.40;99.90;;;19.80;78.55;101326.34;5226429;28;20290;-73
2022/07/07 03:23:01;;;;;;;2.13;1.60;;;19.40;99.90;;;19.77;78.44;101321.94;5227777;28;20053;-73
2022/07/07 03:25:35;;;;;;;2.45;1.65;;;19.40;99.90;;;19.78;78.35;101321.06;5227716;28;20068;-71
2022/07/07 03:28:07;;;;;;;3.30;1.55;;;19.40;99.90;;;19.80;77.73;101326.34;5227810;28;20075;-71
2022/07/07 03:30:39;;;;;;;3.38;1.98;;;19.30;99.90;;;19.78;76.78;101329.00;5227693;28;20047;-70
2022/07/07 03:33:11;;;;;;;7.05;2.30;;;19.40;99.90;;;19.78;77.10;101326.34;5227549;28;20083;-71
2022/07/07 03:35:43;;;;;;;1.73;1.33;;;19.30;99.90;;;19.77;77.42;101321.94;5227526;28;20072;-72
2022/07/07 03:38:15;;;;;;;2.97;1.75;;;19.40;99.90;;;19.78;77.68;101317.53;5227477;28;20037;-71
2022/07/07 03:40:49;;;;;;;2.55;1.70;;;19.30;99.90;;;19.78;77.30;101314.88;5227398;28;20041;-71
2022/07/07 03:43:21;;;;;;;3.35;1.58;;;19.30;99.90;;;19.78;77.42;101307.81;5226027;28;20045;-71
2022/07/07 03:45:54;;;;;;;1.90;1.30;;;19.30;99.90;;;19.79;77.11;101311.34;5225847;28;20131;-72
2022/07/07 03:48:28;;;;;;;2.67;1.60;;;19.30;99.90;;;19.79;77.20;101311.34;5227327;28;20056;-71
2022/07/07 03:51:00;;;;;;;3.22;1.50;;;19.30;99.90;;;19.78;76.78;101302.53;5227122;28;20048;-72
2022/07/07 03:53:32;;;;;;;2.63;1.60;;;19.30;99.90;;;19.78;76.47;101305.19;5227203;28;20043;-72
2022/07/07 03:56:07;;;;;;;1.98;1.75;;;19.30;99.90;;;19.77;76.16;101295.47;5225476;28;20394;-70
2022/07/07 03:58:39;;;;;;;3.28;1.52;;;19.30;99.90;;;19.76;75.83;101301.66;5227017;28;20041;-72
2022/07/07 04:01:11;;;;;;;1.88;1.52;;;19.30;99.90;;;19.77;75.48;101305.19;5227003;28;20128;-71
2022/07/07 04:03:43;;;;;;;2.67;1.30;;;19.30;99.90;;;19.78;75.33;101309.59;5225791;28;20041;-70
2022/07/07 04:06:15;;;;;;;2.08;1.45;;;19.30;99.90;;;19.77;75.32;101311.34;5226656;28;20124;-71
2022/07/07 04:08:47;;;;;;;2.83;1.40;;;19.30;99.90;;;19.78;75.29;101307.81;5225544;28;20053;-71
2022/07/07 04:11:21;;;;;;;1.65;1.33;;;19.30;99.90;;;19.79;75.39;101309.59;5226900;28;20041;-71
2022/07/07 04:13:53;;;;;;;2.78;1.50;;;19.30;99.90;;;19.76;75.45;101301.66;5225543;28;20059;-71
2022/07/07 04:16:27;;;;;;;2.30;1.80;;;19.30;99.90;;;19.73;75.68;101298.97;5227038;28;20047;-71
2022/07/07 04:18:59;;;;;;;2.90;1.52;;;19.30;99.90;;;19.73;76.05;101304.28;5225345;28;20041;-74
2022/07/07 04:21:32;;;;;;;4.13;1.95;;;19.30;99.90;;;19.72;76.29;101297.22;5226663;28;20131;-72
2022/07/07 04:24:05;;;;;;;3.33;2.03;;;19.30;99.90;;;19.71;76.43;101299.84;5226686;28;20549;-72
2022/07/07 04:26:38;;;;;;;2.88;1.60;;;19.30;99.90;;;19.72;76.58;101294.56;5226430;28;20052;-73
2022/07/07 04:29:11;;;;;;;3.15;1.70;;;19.30;99.90;;;19.75;76.48;101291.03;5226544;28;20120;-72
2022/07/07 04:31:44;;;;;;;5.13;1.95;;;19.30;99.90;;;19.75;76.92;101298.97;5226561;28;20049;-72
2022/07/07 04:34:17;;;;;;;3.33;1.90;;;19.30;99.90;;;19.74;77.01;101299.84;5222374;28;20087;-72
2022/07/07 04:36:49;;;;;;;4.03;2.03;;;19.40;99.90;;;19.72;77.14;101291.03;5218239;28;20049;-72
2022/07/07 04:39:21;;;;;;;5.55;2.00;;;19.30;99.90;;;19.68;77.20;101283.97;5226465;28;20072;-71
2022/07/07 04:41:54;;;;;;;3.83;1.77;;;19.30;99.90;;;19.66;77.46;101289.25;5226290;28;20501;-71
2022/07/07 04:44:27;;;;;;;4.00;2.13;;;19.30;99.90;;;19.65;77.83;101283.97;5225041;28;20049;-72
2022/07/07 04:46:59;;;;;;;4.05;2.00;;;19.30;99.90;;;19.65;78.15;101279.56;5226298;28;20501;-72
2022/07/07 04:49:32;;;;;;;2.80;1.95;;;19.30;99.90;;;19.61;78.51;101272.47;5226261;28;20037;-73
2022/07/07 04:52:05;;;;;;;2.72;1.60;;;19.20;99.90;;;19.58;79.19;101267.16;5226086;28;20440;-72
2022/07/07 04:54:37;;;;;;;2.33;1.50;;;19.20;99.90;;;19.59;79.21;101268.94;5224949;28;20140;-72
2022/07/07 04:57:11;;;;;;;2.95;1.52;;;19.20;99.90;;;19.64;79.22;101264.56;5226413;28;20489;-73
2022/07/07 04:59:43;;;;;;;2.45;1.48;;;19.30;99.90;;;19.71;79.49;101271.66;5225091;28;20128;-73
2022/07/07 05:02:15;;;;;;;5.13;2.20;;;19.30;99.90;;;19.71;79.65;101276.94;5226125;28;20502;-73
2022/07/07 05:04:49;;;;;;;2.55;1.60;;;19.30;99.90;;;19.72;79.72;101270.75;5225937;28;20171;-72
2022/07/07 05:07:21;;;;;;;2.92;1.42;;;19.30;99.90;;;19.76;79.96;101267.28;5229026;28;20049;-72
2022/07/07 05:09:53;;;;;;;2.85;1.52;;;19.40;99.90;;;19.84;79.58;101269.06;5229170;28;20136;-71
2022/07/07 05:12:27;;;;;;;5.43;1.83;;;19.40;99.90;;;19.85;79.46;101269.06;5230237;28;20045;-73
2022/07/07 05:14:59;;;;;;;5.57;1.70;;;19.40;99.90;;;19.85;79.57;101273.47;5230089;28;20125;-73
2022/07/07 05:17:31;;;;;;;3.33;1.58;;;19.50;99.90;;;19.82;79.64;101263.75;5230233;28;20489;-72
2022/07/07 05:20:04;;;;;;;2.47;1.40;;;19.40;99.90;;;19.83;79.50;101262.00;5230144;28;20049;-73
2022/07/07 05:22:36;;;;;;;2.33;1.30;;;19.40;99.90;;;19.83;79.31;101260.25;5230250;28;20091;-72
2022/07/07 05:25:09;;;;;;;2.92;1.70;;;19.40;99.90;;;19.82;79.56;101265.50;5230055;28;20036;-73
2022/07/07 05:27:44;;;;;;;2.53;1.77;;;19.40;99.90;;;19.79;79.75;101271.69;5230192;28;20045;-73
2022/07/07 05:30:16;;;;;;;4.03;1.63;;;19.40;99.90;;;19.76;79.47;101259.34;5230053;28;20041;-73
2022/07/07 05:32:48;;;;;;;3.50;1.80;;;19.40;99.90;;;19.73;79.42;101263.72;5229929;28;20081;-73
2022/07/07 05:35:20;;;;;;;2.47;1.40;;;19.30;99.90;;;19.67;79.63;101259.28;5229892;28;20037;-73
2022/07/07 05:37:53;;;;;;;6.00;1.92;;;19.30;99.90;;;19.62;80.33;101257.47;5229760;28;20048;-73
2022/07/07 05:40:25;;;;;;;4.38;1.70;;;19.20;99.90;;;19.59;80.28;101266.28;5229950;28;20041;-73
2022/07/07 05:42:59;;;;;;;3.90;1.55;;;19.30;99.90;;;19.58;80.51;101276.88;5230091;28;20048;-73
2022/07/07 05:45:31;;;;;;;4.57;1.60;;;19.20;99.90;;;19.57;80.38;101265.38;5229550;28;20494;-72
2022/07/07 05:48:04;;;;;;;5.63;2.03;;;19.20;99.90;;;19.63;80.52;101276.03;5229829;28;20049;-72
2022/07/07 05:50:36;;;;;;;3.00;1.75;;;19.20;99.90;;;19.63;80.37;101276.03;5229655;28;20501;-73
2022/07/07 05:53:09;;;;;;;3.50;1.55;;;19.20;99.90;;;19.64;80.14;101269.84;5229655;28;20527;-72
2022/07/07 05:55:41;;;;;;;2.38;1.50;;;19.20;99.90;;;19.69;80.19;101285.72;5229427;28;20515;-72
2022/07/07 05:58:16;;;;;;;2.70;1.55;;;19.30;99.90;;;19.73;79.87;101283.09;5229422;28;20044;-70
2022/07/07 06:00:48;;;;;;;3.10;1.90;;;19.30;99.90;;;19.74;80.38;101282.22;5229408;28;20049;-70
2022/07/07 06:03:20;;;;;;;3.38;1.40;;;19.30;99.90;;;19.77;81.79;101291.97;5228314;28;20059;-70
2022/07/07 06:05:53;;;;;;;3.78;1.67;;;19.40;99.90;;;19.78;82.93;101286.66;5229473;28;20080;-70
2022/07/07 06:08:27;;;;;;;3.50;2.00;;;19.40;99.90;;;19.74;84.40;101273.41;5229370;28;20045;-70
2022/07/07 06:13:54;;;;;;;5.78;2.00;;;19.20;99.90;;;19.45;88.15;101291.75;5192287;28;20066;-69
2022/07/07 06:16:40;;;;;;;3.65;2.03;;;19.10;99.90;;;19.38;88.90;101287.28;5203878;28;20046;-69
2022/07/07 06:19:14;;;;;;;4.50;2.10;;;19.10;99.90;;;19.32;90.11;101289.91;5208241;28;20080;-69
2022/07/07 06:21:46;;;;;;;5.00;2.35;;;19.00;99.90;;;19.30;90.81;101283.69;5206971;28;20047;-69
2022/07/07 06:24:19;;;;;;;3.70;2.28;;;19.00;99.90;;;19.24;91.50;101297.78;5208354;28;20536;-70
2022/07/07 06:26:51;;;;;;;4.25;2.90;;;18.90;99.90;;;19.19;92.78;101289.81;5208337;28;20048;-73
2022/07/07 06:29:24;;;;;;;5.22;2.65;;;18.90;99.90;;;19.17;93.96;101295.94;5208339;28;20041;-70
2022/07/07 06:31:56;;;;;;;6.53;2.83;;;18.80;99.90;;;19.10;95.86;101309.97;5208437;28;20037;-70
2022/07/07 06:34:29;;;;;;;4.65;2.58;;;18.80;99.90;;;19.04;97.40;101312.56;5208081;28;20042;-70
2022/07/07 06:37:01;;;;;;;5.22;2.38;;;18.70;99.90;;;18.96;97.94;101325.72;5206660;28;20053;-68
2022/07/07 06:39:33;;;;;;;3.83;2.38;;;18.70;99.90;;;18.87;98.72;101325.63;5208057;28;20421;-69
2022/07/07 06:42:06;;;;;;;5.75;2.55;;;18.70;99.90;;;18.81;100.00;101333.50;5207996;28;20056;-68
2022/07/07 06:44:47;;;;;;;4.38;2.58;;;18.60;99.90;;;18.73;100.00;101329.91;5206582;28;20069;-69
2022/07/07 06:47:19;;;;;;;4.20;2.40;;;18.50;99.90;;;18.65;100.00;101333.31;5207755;28;20132;-69
2022/07/07 06:49:51;;;;;;;4.45;2.05;;;18.40;99.90;;;18.63;100.00;101328.88;5207937;28;20120;-69
2022/07/07 06:52:23;;;;;;;4.25;2.50;;;18.40;99.90;;;18.64;100.00;101336.81;5207731;28;20414;-69
2022/07/07 06:54:55;;;;;;;4.05;2.10;;;18.40;99.90;;;18.66;100.00;101334.22;5207703;28;20051;-69
2022/07/07 06:57:28;;;;;;;5.03;2.65;;;18.40;99.90;;;18.64;100.00;101342.09;5207636;28;20037;-70
2022/07/07 07:00:01;;;;;;;4.15;2.40;;;18.40;99.90;;;18.66;100.00;101350.06;5207607;28;20041;-70
2022/07/07 07:02:33;;;;;;;2.55;1.92;;;18.40;99.90;;;18.70;100.00;101342.19;5207498;28;20049;-69
2022/07/07 07:05:06;;;;;;;2.50;2.10;;;18.40;99.90;;;18.76;100.00;101345.78;5207699;28;20045;-70
2022/07/07 07:07:38;;;;;;;2.08;1.80;;;18.50;99.90;;;18.83;100.00;101339.66;5207556;28;20052;-67
2022/07/07 07:10:11;;;;;;;3.15;2.00;;;18.50;99.90;;;18.98;100.00;101345.13;5207354;28;20474;-68
2022/07/07 07:12:43;;;;;;;3.72;2.17;;;18.60;99.90;;;19.16;100.00;101342.63;5218295;28;20045;-68
2022/07/07 07:15:17;;;;;;;3.47;2.17;;;18.80;99.90;;;19.38;100.00;101343.69;5227827;28;20059;-69
2022/07/07 07:17:49;;;;;;;3.78;2.67;;;18.90;99.90;;;19.58;100.00;101345.63;5227891;28;20126;-69
2022/07/07 07:20:21;;;;;;;3.42;2.00;;;19.10;99.90;;;19.69;100.00;101347.47;5227683;28;20037;-69
2022/07/07 07:22:53;;;;;;;3.17;2.67;;;19.20;99.90;;;19.72;100.00;101349.22;5227685;28;20052;-69
2022/07/07 07:25:26;;;;;;;2.92;2.13;;;19.30;99.90;;;19.59;99.32;101350.03;5227484;28;20087;-68
2022/07/07 07:27:58;;;;;;;3.80;2.60;;;19.20;99.90;;;19.45;100.00;101356.06;5227695;28;20069;-68
2022/07/07 07:30:32;;;;;;;3.78;2.63;;;19.10;99.90;;;19.34;100.00;101354.22;5227107;28;20048;-69
2022/07/07 07:33:04;;;;;;;5.65;3.80;;;19.00;99.90;;;19.23;100.00;101357.69;5227425;28;20371;-69
2022/07/07 07:35:36;;;;;;;5.80;3.50;;;18.90;99.90;;;19.14;100.00;101348.78;5227548;28;20053;-69
2022/07/07 07:38:09;;;;;;;6.45;3.50;;;18.80;99.90;;;19.08;100.00;101360.16;5227773;28;20557;-69
2022/07/07 07:40:41;;;;;;;5.03;2.90;;;18.80;99.90;;;19.04;100.00;101354.84;5227421;28;20052;-70
2022/07/07 07:43:13;;;;;;;3.78;2.70;;;18.70;99.90;;;19.03;100.00;101355.72;5227217;28;20057;-63
2022/07/07 07:45:47;;;;;;;4.53;2.53;;;18.70;99.90;;;19.11;100.00;101364.63;5227094;28;20547;-64
2022/07/07 07:48:19;;;;;;;4.72;2.40;;;18.70;99.90;;;19.21;100.00;101369.09;5227351;28;20409;-66
2022/07/07 07:50:51;;;;;;;3.08;1.70;;;18.80;99.90;;;19.33;99.08;101368.31;5227130;28;20041;-67
2022/07/07 07:53:23;;;;;;;1.67;1.50;;;18.90;99.90;;;19.53;98.51;101369.34;5227366;28;20053;-67
2022/07/07 07:55:55;;;;;;;2.13;1.58;;;19.10;99.90;;;19.79;98.26;101375.72;5226824;28;20120;-67
2022/07/07 07:58:28;;;;;;;1.70;1.52;;;19.30;99.90;;;20.21;98.11;101373.28;5227220;28;20390;-67
2022/07/07 08:01:01;;;;;;;2.05;1.10;;;19.60;99.90;;;20.39;92.72;101375.13;5226909;28;20036;-67
2022/07/07 08:03:33;;;;;;;1.95;1.40;;;19.80;99.90;;;20.31;88.88;101372.47;5226827;28;20059;-63
2022/07/07 08:06:06;;;;;;;2.05;1.10;;;19.80;99.90;;;20.26;87.60;101379.50;5226737;28;20051;-62
2022/07/07 08:08:38;;;;;;;2.53;1.38;;;19.90;99.90;;;20.11;85.89;101380.31;5227416;28;20049;-66
2022/07/07 08:11:10;;;;;;;2.13;1.30;;;19.80;99.90;;;19.96;87.17;101381.13;5227145;28;20052;-67
2022/07/07 08:13:42;;;;;;;1.92;1.10;;;19.70;99.90;;;19.98;88.15;101389.06;5226592;28;20066;-65
2022/07/07 08:16:16;;;;;;;1.20;1.00;;;19.70;99.90;;;20.17;88.16;101393.59;5226492;28;20044;-67
2022/07/07 08:18:48;;;;;;;1.38;1.27;;;19.80;99.90;;;20.42;87.15;101391.94;5226775;28;20052;-58
2022/07/07 08:21:20;;;;;;;3.60;1.23;;;19.90;99.90;;;20.48;85.91;101396.41;5226621;28;20111;-58
2022/07/07 08:23:53;;;;;;;1.98;0.90;;;19.90;99.90;;;20.29;85.54;101406.88;5226823;28;20123;-72
2022/07/07 08:26:25;;;;;;;1.20;0.98;;;19.90;99.90;;;20.22;86.14;101405.09;5225026;28;20052;-72
2022/07/07 08:28:58;;;;;;;1.10;1.00;;;19.80;99.90;;;20.33;86.89;101398.06;5226718;28;20143;-71
2022/07/07 08:31:34;;;;;;;2.15;0.80;;;19.80;99.90;;;20.31;84.90;101410.41;5226402;28;20051;-72
2022/07/07 08:34:07;;;;;;;0.68;0.68;;;19.80;99.90;;;20.20;83.50;101417.41;5226729;28;20041;-71
2022/07/07 08:36:39;;;;;;;0.90;0.70;;;19.80;99.90;;;20.07;82.92;101418.22;5226305;28;20045;-72
2022/07/07 08:39:11;;;;;;;0.63;0.57;;;19.70;99.90;;;19.92;81.30;101429.59;5226461;28;20037;-72
2022/07/07 08:41:43;;;;;;;1.60;0.75;;;19.50;99.90;;;19.75;79.82;101424.19;5225415;28;20059;-71
2022/07/07 08:44:16;;;;;;;1.50;0.90;;;19.40;99.90;;;19.69;80.34;101433.84;5226478;28;20104;-71
2022/07/07 08:46:50;;;;;;;2.42;0.52;;;19.40;99.90;;;19.69;80.41;101429.47;5226105;28;20495;-72
2022/07/07 08:49:22;;;;;;;1.05;0.47;;;19.30;99.90;;;19.75;80.53;101432.13;5226603;28;20049;-71
2022/07/07 08:51:55;;;;;;;1.45;0.60;;;19.30;99.90;;;19.81;80.86;101433.91;5226264;28;20047;-72
2022/07/07 08:54:28;;;;;;;2.83;0.80;;;19.40;99.90;;;19.91;80.66;101440.19;5226229;28;20044;-72
2022/07/07 08:57:01;;;;;;;2.70;0.90;;;19.50;99.90;;;20.16;80.06;101426.22;5226065;28;20413;-72
2022/07/07 08:59:33;;;;;;;5.32;1.20;;;19.60;99.90;;;20.60;79.47;101441.44;5226187;28;20045;-72
2022/07/07 09:02:08;;;;;;;1.67;0.73;;;19.90;99.90;;;20.77;76.29;101450.34;5226284;28;20113;-71
2022/07/07 09:04:41;;;;;;;2.72;0.93;;;20.00;99.90;;;20.69;74.36;101446.78;5225959;28;20136;-72
2022/07/07 09:07:13;;;;;;;3.45;0.70;;;20.10;99.90;;;20.63;74.31;101451.19;5226074;28;20132;-71
2022/07/07 09:09:49;;;;;;;3.17;0.80;;;20.10;99.90;;;20.49;75.04;101448.47;5226260;28;20037;-71
2022/07/07 09:12:21;;;;;;;1.33;0.85;;;20.10;99.90;;;20.36;75.43;101451.91;5224870;28;20056;-71
2022/07/07 09:14:53;;;;;;;3.13;0.80;;;20.00;99.90;;;20.32;75.38;101449.25;5225746;28;20051;-71
2022/07/07 09:17:32;;;;;;;2.72;1.08;;;19.90;99.90;;;20.29;75.62;101453.66;5226072;28;20052;-70
2022/07/07 09:20:07;;;;;;;4.03;0.90;;;19.80;99.90;;;20.27;75.47;101455.38;5226016;28;20095;-70
2022/07/07 09:22:48;;;;;;;1.80;0.93;;;19.80;99.90;;;20.26;75.51;101464.22;5225955;28;20045;-72
2022/07/07 09:25:23;;;;;;;1.73;0.80;;;19.80;99.90;;;20.18;76.40;101479.16;5225680;28;20049;-74
2022/07/07 09:28:00;;;;;;;2.40;1.15;;;19.80;99.90;;;19.98;79.04;101476.38;5225968;28;20045;-71
2022/07/07 09:30:35;;;;;;;2.63;0.85;;;19.60;99.90;;;19.81;79.41;101486.84;5224692;28;20049;-71
2022/07/07 09:33:11;;;;;;;4.75;1.02;;;19.50;99.90;;;19.64;80.33;101478.78;5224699;28;20410;-71
2022/07/07 09:38:36;;;;;;;1.88;0.88;;;19.30;99.90;;;19.59;80.71;101499.00;5225880;28;20041;-71
2022/07/07 09:41:13;;;;;;;2.40;0.80;;;19.20;99.90;;;19.63;78.64;101498.16;5225910;28;20051;-71
2022/07/07 09:43:48;;;;;;;1.50;0.82;;;19.30;99.90;;;19.74;78.39;101504.41;5225866;28;20073;-71
2022/07/07 09:46:23;;;;;;;3.10;0.70;;;19.30;99.90;;;19.97;77.87;101509.03;5225530;28;20049;-71
2022/07/07 09:48:59;;;;;;;1.60;0.80;;;19.40;99.90;;;20.25;77.21;101510.97;5225872;28;20049;-71
2022/07/07 09:51:34;;;;;;;1.73;0.90;;;19.70;99.90;;;20.59;76.17;101511.19;5225866;28;20144;-71
2022/07/07 09:54:10;;;;;;;1.25;0.88;;;19.90;99.90;;;20.93;73.95;101506.03;5229509;28;20041;-72
2022/07/07 09:56:44;;;;;;;1.15;0.68;;;20.20;99.90;;;21.21;72.20;101513.22;5229226;28;20067;-72
2022/07/07 09:59:18;;;;;;;;;;;20.40;99.90;;;21.52;70.68;101519.50;5229922;28;20409;-71
2022/07/07 10:01:52;;;;;;;1.30;0.68;;;20.70;99.90;;;21.72;69.60;101522.16;5229483;28;19924;-71
2022/07/07 10:04:28;;;;;;;4.60;0.90;;;21.00;99.90;;;21.73;70.63;101526.59;5229430;28;20459;-71
2022/07/07 10:07:00;;;;;;;1.90;0.95;;;21.10;99.90;;;21.65;69.92;101533.66;5229112;28;20051;-71
2022/07/07 10:09:32;;;;;;;2.63;0.80;;;21.10;99.60;;;21.32;70.97;101523.84;5229401;28;20493;-72
2022/07/07 10:12:06;;;;;;;1.58;0.68;;;20.90;99.70;;;20.94;71.24;101537.88;5229077;28;20412;-71
2022/07/07 10:14:45;;;;;;;3.55;0.70;;;20.50;99.60;;;20.53;73.33;101548.25;5229127;28;20049;-70
2022/07/07 10:17:18;;;;;;;2.60;0.98;;;20.20;99.90;;;20.12;75.35;101545.28;5229304;28;20051;-71
2022/07/07 10:19:52;;;;;;;4.70;1.27;;;19.90;99.90;;;19.79;77.50;101547.66;5229424;28;20378;-71
2022/07/07 10:22:27;;;;;;;3.05;0.80;;;19.60;99.90;;;19.63;78.87;101551.06;5228982;28;20056;-71
2022/07/07 10:25:03;;;;;;;4.63;1.38;;;19.50;99.90;;;19.79;80.69;101544.16;5229001;28;20448;-71
2022/07/07 10:27:35;;;;;;;1.70;0.85;;;19.40;99.90;;;20.09;81.18;101542.63;5229291;28;20043;-70
2022/07/07 10:30:09;;;;;;;3.53;1.27;;;19.60;99.90;;;20.37;78.86;101546.34;5228846;28;20087;-72
2022/07/07 10:32:52;;;;;;;2.15;0.70;;;19.80;99.90;;;20.61;77.01;101550.97;5228903;28;20041;-59
2022/07/07 10:35:27;;;;;;;1.33;0.68;;;20.00;99.90;;;20.77;75.43;101563.41;5228756;28;20055;-60
2022/07/07 10:37:59;;;;;;;1.40;0.63;;;20.20;99.90;;;20.81;72.34;101574.03;5228851;28;20045;-59
2022/07/07 10:40:32;;;;;;;2.22;0.60;;;20.30;99.90;;;20.79;71.04;101577.53;5228655;28;20037;-58
2022/07/07 10:43:23;;;;;;;0.98;0.50;;;20.30;99.90;;;20.78;70.10;101576.66;5228597;28;20071;-60